الصفحة الرئيسية
METAR-TAF:

METAR-TAF

مطار :

Pointe-à-Pitre, جوادلوب

دائرة عرض: 16-16N, خط طول: 061-31W, ارتفاع: 11 متر

مراقبة الطقس الحالي

تاريخ ووقت الإصدار 24 دقيقة قبل الساعة 11:00UTC
ريح 5 عقدة من الشرق
درجة الحرارة 23°درجة مئوية
الرطوبة 89%
ضغط 1015 hPa
الرؤية 10 كم أو أكثر
غيوم قليلة على ارتفاع 2000 قدم

METAR: TFFR 161100Z AUTO 10005KT 9999 FEW020 23/21 Q1015 TEMPO 3000 SHRA FEW010CB SCT018TCU

زمن: 07:24 (11:24 UTC)

توقعات

تاريخ ووقت الإصدار 6ساعات و 24 دقيقة قبل الساعة 05:00UTC
التوقعات صالحة من16 الساعة 06 UTC إلى 17 الساعة 06 UTC
ريح 7 عقدة من الشرق
الرؤية 10 كم أو أكثر
غيوم متفرقة على ارتفاع 2300 قدم
مؤقت
من 16 الساعة 06 UTC إلى 16 الساعة 24 UTC
الرؤية: 3000 متر
غيوم قليلة على ارتفاع 1000 قدم, مزنة ركامية.
غيوم متفرقة على ارتفاع 1800 قدم, مزن ركامية عمودية.
زخات من المطر

TAF: TFFR 160500Z 1606/1706 09007KT 9999 SCT023 TEMPO 1606/1624 3000 SHRA FEW010CB SCT018TCU

أرصاد الطقس والتوقعات من أكثر من 4000 مطار (تقارير الطقس للمطار METAR والتنبؤ بالطقس بالمطارTAF).

المحطات المتاحة هي النقط الصفراء والحمراء على الخريطة.

حرك المؤشر فوق النقطة لمعرفة اسم المحطة.

ثم انقر لمعرفة أرصاد وتوقعات الطقس.

لتغيير الخارطة: اضغط على الأزرار الخضراء مع رمز الصليب الأسود للتكبير. على الزر الأخضر مع شرطة للتصغير، أو على الأسهم الخضراء للخرائط المجاورة.


METAR-TAF: